sensor_id;sensor_type;location;lat;lon;timestamp;P1;durP1;ratioP1;P2;durP2;ratioP2
67090;SDS011;54007;55.818;49.058;2022-09-27T00:00:18;10.07;;;5.40;;
67090;SDS011;54007;55.818;49.058;2022-09-27T10:51:02;37.38;;;17.00;;
67090;SDS011;54007;55.818;49.058;2022-09-27T10:53:26;42.73;;;17.57;;
67090;SDS011;54007;55.818;49.058;2022-09-27T10:55:51;43.07;;;18.80;;
67090;SDS011;54007;55.818;49.058;2022-09-27T11:00:57;39.27;;;17.75;;
67090;SDS011;54007;55.818;49.058;2022-09-27T11:03:21;42.83;;;18.57;;
67090;SDS011;54007;55.818;49.058;2022-09-27T11:05:47;42.37;;;17.67;;
67090;SDS011;54007;55.818;49.058;2022-09-27T11:13:19;41.80;;;19.13;;
67090;SDS011;54007;55.818;49.058;2022-09-27T11:18:15;43.10;;;18.05;;
67090;SDS011;54007;55.818;49.058;2022-09-27T11:20:45;40.50;;;18.33;;
67090;SDS011;54007;55.818;49.058;2022-09-27T11:30:42;35.95;;;17.12;;
67090;SDS011;54007;55.818;49.058;2022-09-27T11:33:12;41.30;;;18.37;;
67090;SDS011;54007;55.818;49.058;2022-09-27T11:43:20;38.80;;;18.12;;
67090;SDS011;54007;55.818;49.058;2022-09-27T11:48:13;36.70;;;17.83;;
67090;SDS011;54007;55.818;49.058;2022-09-27T12:00:39;37.10;;;17.17;;
67090;SDS011;54007;55.818;49.058;2022-09-27T12:05:49;35.75;;;17.57;;
67090;SDS011;54007;55.818;49.058;2022-09-27T12:10:58;35.73;;;16.30;;
67090;SDS011;54007;55.818;49.058;2022-09-27T12:13:33;35.70;;;16.17;;
67090;SDS011;54007;55.818;49.058;2022-09-27T12:15:57;32.00;;;16.27;;
67090;SDS011;54007;55.818;49.058;2022-09-27T12:18:29;34.70;;;16.13;;
67090;SDS011;54007;55.818;49.058;2022-09-27T12:20:51;30.68;;;15.45;;
67090;SDS011;54007;55.818;49.058;2022-09-27T12:23:40;34.33;;;16.27;;
67090;SDS011;54007;55.818;49.058;2022-09-27T12:25:43;31.10;;;16.03;;
67090;SDS011;54007;55.818;49.058;2022-09-27T12:28:11;36.33;;;16.37;;
67090;SDS011;54007;55.818;49.058;2022-09-27T12:30:36;34.20;;;15.83;;
67090;SDS011;54007;55.818;49.058;2022-09-27T12:33:43;31.68;;;15.23;;
67090;SDS011;54007;55.818;49.058;2022-09-27T12:35:39;31.93;;;15.93;;
67090;SDS011;54007;55.818;49.058;2022-09-27T12:40:30;58.10;;;32.37;;
67090;SDS011;54007;55.818;49.058;2022-09-27T12:42:59;31.42;;;16.30;;
67090;SDS011;54007;55.818;49.058;2022-09-27T12:48:07;32.10;;;14.87;;
67090;SDS011;54007;55.818;49.058;2022-09-27T12:50:35;31.40;;;15.78;;
67090;SDS011;54007;55.818;49.058;2022-09-27T12:53:04;28.95;;;15.13;;
67090;SDS011;54007;55.818;49.058;2022-09-27T12:58:01;29.47;;;14.43;;
67090;SDS011;54007;55.818;49.058;2022-09-27T13:00:23;30.15;;;14.80;;
67090;SDS011;54007;55.818;49.058;2022-09-27T13:02:52;28.67;;;15.35;;
67090;SDS011;54007;55.818;49.058;2022-09-27T13:05:28;31.10;;;16.73;;
67090;SDS011;54007;55.818;49.058;2022-09-27T13:08:43;26.87;;;14.10;;
67090;SDS011;54007;55.818;49.058;2022-09-27T13:13:01;30.80;;;15.15;;
67090;SDS011;54007;55.818;49.058;2022-09-27T13:15:30;31.20;;;14.43;;
67090;SDS011;54007;55.818;49.058;2022-09-27T13:17:55;26.45;;;14.73;;
67090;SDS011;54007;55.818;49.058;2022-09-27T13:22:56;27.57;;;14.33;;
67090;SDS011;54007;55.818;49.058;2022-09-27T13:30:51;29.80;;;14.20;;
67090;SDS011;54007;55.818;49.058;2022-09-27T13:33:21;27.10;;;14.17;;
67090;SDS011;54007;55.818;49.058;2022-09-27T13:38:30;29.82;;;15.80;;
67090;SDS011;54007;55.818;49.058;2022-09-27T13:41:11;30.25;;;14.78;;
67090;SDS011;54007;55.818;49.058;2022-09-27T13:43:37;31.60;;;14.78;;
67090;SDS011;54007;55.818;49.058;2022-09-27T13:45:57;30.55;;;14.40;;
67090;SDS011;54007;55.818;49.058;2022-09-27T13:48:24;25.55;;;13.50;;
67090;SDS011;54007;55.818;49.058;2022-09-27T13:50:50;30.53;;;13.50;;
67090;SDS011;54007;55.818;49.058;2022-09-27T13:55:50;29.90;;;13.38;;
67090;SDS011;54007;55.818;49.058;2022-09-27T13:58:26;27.30;;;13.67;;
67090;SDS011;54007;55.818;49.058;2022-09-27T14:00:48;25.08;;;13.30;;
67090;SDS011;54007;55.818;49.058;2022-09-27T14:03:14;26.97;;;13.38;;
67090;SDS011;54007;55.818;49.058;2022-09-27T14:05:50;27.07;;;12.68;;
67090;SDS011;54007;55.818;49.058;2022-09-27T14:08:18;27.43;;;12.10;;
67090;SDS011;54007;55.818;49.058;2022-09-27T14:10:42;25.68;;;13.22;;
67090;SDS011;54007;55.818;49.058;2022-09-27T14:13:05;27.07;;;13.45;;
67090;SDS011;54007;55.818;49.058;2022-09-27T14:15:31;25.60;;;12.97;;
67090;SDS011;54007;55.818;49.058;2022-09-27T14:17:57;27.22;;;13.85;;
67090;SDS011;54007;55.818;49.058;2022-09-27T14:20:30;32.50;;;13.08;;
67090;SDS011;54007;55.818;49.058;2022-09-27T14:22:58;27.57;;;13.23;;
67090;SDS011;54007;55.818;49.058;2022-09-27T14:25:26;28.87;;;12.47;;
67090;SDS011;54007;55.818;49.058;2022-09-27T14:27:52;26.15;;;13.05;;
67090;SDS011;54007;55.818;49.058;2022-09-27T14:30:22;28.10;;;13.57;;
67090;SDS011;54007;55.818;49.058;2022-09-27T14:32:50;28.80;;;13.28;;
67090;SDS011;54007;55.818;49.058;2022-09-27T14:35:16;27.98;;;12.90;;
67090;SDS011;54007;55.818;49.058;2022-09-27T14:38:04;25.68;;;12.55;;
67090;SDS011;54007;55.818;49.058;2022-09-27T14:40:29;26.87;;;12.20;;
67090;SDS011;54007;55.818;49.058;2022-09-27T14:42:55;27.00;;;12.90;;
67090;SDS011;54007;55.818;49.058;2022-09-27T14:45:22;24.47;;;11.73;;
67090;SDS011;54007;55.818;49.058;2022-09-27T14:47:48;30.00;;;12.70;;
67090;SDS011;54007;55.818;49.058;2022-09-27T14:50:17;24.05;;;11.73;;
67090;SDS011;54007;55.818;49.058;2022-09-27T14:52:42;29.95;;;14.80;;
67090;SDS011;54007;55.818;49.058;2022-09-27T14:55:14;27.55;;;11.73;;
67090;SDS011;54007;55.818;49.058;2022-09-27T14:57:34;21.13;;;10.57;;
67090;SDS011;54007;55.818;49.058;2022-09-27T15:00:16;21.05;;;10.23;;
67090;SDS011;54007;55.818;49.058;2022-09-27T15:02:42;21.52;;;10.82;;
67090;SDS011;54007;55.818;49.058;2022-09-27T15:05:27;17.43;;;9.50;;
67090;SDS011;54007;55.818;49.058;2022-09-27T15:07:37;23.62;;;9.78;;
67090;SDS011;54007;55.818;49.058;2022-09-27T15:10:03;21.87;;;9.48;;
67090;SDS011;54007;55.818;49.058;2022-09-27T15:12:29;20.37;;;10.00;;
67090;SDS011;54007;55.818;49.058;2022-09-27T15:14:54;18.60;;;9.70;;
67090;SDS011;54007;55.818;49.058;2022-09-27T15:17:20;17.57;;;8.80;;
67090;SDS011;54007;55.818;49.058;2022-09-27T15:22:39;20.55;;;9.98;;
67090;SDS011;54007;55.818;49.058;2022-09-27T15:25:07;16.97;;;9.35;;
67090;SDS011;54007;55.818;49.058;2022-09-27T15:27:30;18.35;;;9.20;;
67090;SDS011;54007;55.818;49.058;2022-09-27T15:29:56;19.67;;;9.23;;
67090;SDS011;54007;55.818;49.058;2022-09-27T15:32:22;17.70;;;9.70;;
67090;SDS011;54007;55.818;49.058;2022-09-27T15:34:48;17.93;;;9.57;;
67090;SDS011;54007;55.818;49.058;2022-09-27T15:38:08;18.23;;;9.43;;
67090;SDS011;54007;55.818;49.058;2022-09-27T15:39:42;16.30;;;9.08;;
67090;SDS011;54007;55.818;49.058;2022-09-27T15:42:11;17.47;;;9.83;;
67090;SDS011;54007;55.818;49.058;2022-09-27T15:47:03;24.02;;;11.35;;
67090;SDS011;54007;55.818;49.058;2022-09-27T15:49:29;22.33;;;10.53;;
67090;SDS011;54007;55.818;49.058;2022-09-27T15:51:55;19.37;;;10.78;;
67090;SDS011;54007;55.818;49.058;2022-09-27T15:54:21;22.27;;;11.30;;
67090;SDS011;54007;55.818;49.058;2022-09-27T15:56:49;17.87;;;10.47;;
67090;SDS011;54007;55.818;49.058;2022-09-27T15:59:16;21.65;;;11.75;;
67090;SDS011;54007;55.818;49.058;2022-09-27T16:01:38;20.50;;;11.03;;
67090;SDS011;54007;55.818;49.058;2022-09-27T16:04:07;20.95;;;11.10;;
67090;SDS011;54007;55.818;49.058;2022-09-27T16:06:30;24.27;;;11.38;;
67090;SDS011;54007;55.818;49.058;2022-09-27T16:08:55;34.53;;;17.77;;
67090;SDS011;54007;55.818;49.058;2022-09-27T16:11:21;24.70;;;11.93;;
67090;SDS011;54007;55.818;49.058;2022-09-27T16:13:47;22.25;;;11.45;;
67090;SDS011;54007;55.818;49.058;2022-09-27T16:16:14;22.73;;;11.80;;
67090;SDS011;54007;55.818;49.058;2022-09-27T16:18:39;22.98;;;11.00;;
67090;SDS011;54007;55.818;49.058;2022-09-27T16:21:05;24.83;;;12.40;;
67090;SDS011;54007;55.818;49.058;2022-09-27T16:23:31;22.93;;;11.73;;
67090;SDS011;54007;55.818;49.058;2022-09-27T16:25:56;20.48;;;10.98;;
67090;SDS011;54007;55.818;49.058;2022-09-27T16:28:22;22.03;;;10.87;;
67090;SDS011;54007;55.818;49.058;2022-09-27T16:30:48;22.85;;;12.10;;
67090;SDS011;54007;55.818;49.058;2022-09-27T16:33:14;22.60;;;12.00;;
67090;SDS011;54007;55.818;49.058;2022-09-27T16:35:40;24.85;;;11.48;;
67090;SDS011;54007;55.818;49.058;2022-09-27T16:38:06;25.27;;;12.13;;
67090;SDS011;54007;55.818;49.058;2022-09-27T16:40:32;25.20;;;12.00;;
67090;SDS011;54007;55.818;49.058;2022-09-27T16:42:57;24.85;;;12.50;;
67090;SDS011;54007;55.818;49.058;2022-09-27T16:45:23;23.73;;;11.70;;
67090;SDS011;54007;55.818;49.058;2022-09-27T16:47:49;23.52;;;11.75;;
67090;SDS011;54007;55.818;49.058;2022-09-27T16:50:15;20.40;;;11.33;;
67090;SDS011;54007;55.818;49.058;2022-09-27T16:52:59;21.87;;;11.17;;
67090;SDS011;54007;55.818;49.058;2022-09-27T16:55:26;22.60;;;11.75;;
67090;SDS011;54007;55.818;49.058;2022-09-27T16:57:51;21.75;;;11.65;;
67090;SDS011;54007;55.818;49.058;2022-09-27T17:00:17;21.00;;;10.63;;
67090;SDS011;54007;55.818;49.058;2022-09-27T17:02:43;20.37;;;11.93;;
67090;SDS011;54007;55.818;49.058;2022-09-27T17:05:09;18.33;;;10.53;;
67090;SDS011;54007;55.818;49.058;2022-09-27T17:07:34;21.97;;;11.35;;
67090;SDS011;54007;55.818;49.058;2022-09-27T17:10:00;19.35;;;10.85;;
67090;SDS011;54007;55.818;49.058;2022-09-27T17:12:26;20.23;;;10.13;;
67090;SDS011;54007;55.818;49.058;2022-09-27T17:14:52;20.08;;;11.12;;
67090;SDS011;54007;55.818;49.058;2022-09-27T17:17:18;19.07;;;10.50;;
67090;SDS011;54007;55.818;49.058;2022-09-27T17:19:44;18.80;;;10.25;;
67090;SDS011;54007;55.818;49.058;2022-09-27T17:22:09;22.17;;;10.18;;
67090;SDS011;54007;55.818;49.058;2022-09-27T17:24:35;21.57;;;10.00;;
67090;SDS011;54007;55.818;49.058;2022-09-27T17:27:01;18.00;;;10.10;;
67090;SDS011;54007;55.818;49.058;2022-09-27T17:29:27;16.32;;;9.18;;
67090;SDS011;54007;55.818;49.058;2022-09-27T17:31:53;15.77;;;8.13;;
67090;SDS011;54007;55.818;49.058;2022-09-27T17:34:19;15.78;;;8.68;;
67090;SDS011;54007;55.818;49.058;2022-09-27T17:36:45;14.68;;;7.42;;
